Historique des mesures à Cassis (13260), France
Quotidien Résumé Avril 15, 2018 Unités:  Métrique    US   Métrique/US
« Précédent (Jour)
Suivant (Jour) »
Quotidien Hebdomadaire Mensuel Annuel Période au choix
  Maximum: Minimum: Moyenne:
Température: TemperatureC °C 14.9 °C 17.1 °C
Point de rosée: DewpointC °C 7.6 °C 9.1 °C
Humidité: Humidity % 51 % 56 %
Vitesse du vent: 0 km/h 0 km/h 8.5 km/h
Rafales: 0 km/h - -
Vent:- - SW
Pression: PressurehPa hPa 1004.6 hPa -
Précipitations: 0.0 mm    
Historical Graphs
 
 
Mesures pour : Avril 15, 2018
Heure Temperature Point de rosée Pression Vent Vitesse du vent Rafales Humidité Pluie (par heure) Conditions
TemperatureC °C DewpointC °C PressurehPa hPa Calm     Humidity % HourlyPrecipMM mm SoftwareType W/m2
00:10 15.5 °C 9.6 °C 1010.7 hPa North 6.9 km/h 6.9 km/h 68 % 0.0 mm open2300-1.11 W/m2
01:10 15.1 °C 9.0 °C 1010.4 hPa WNW 7.6 km/h 7.6 km/h 67 % 0.0 mm open2300-1.11 W/m2
02:10 14.9 °C 8.6 °C 1010.0 hPa North 11.6 km/h 11.6 km/h 66 % 0.0 mm open2300-1.11 W/m2
03:10 15.3 °C 8.3 °C 1008.7 hPa NNW 13.2 km/h 13.2 km/h 63 % 0.0 mm open2300-1.11 W/m2
04:10 15.6 °C 7.9 °C 1008.4 hPa NW 5.1 km/h 6.4 km/h 60 % 0.0 mm open2300-1.11 W/m2
05:10 15.6 °C 7.6 °C 1007.7 hPa North 9.3 km/h 9.3 km/h 59 % 0.0 mm open2300-1.11 W/m2
06:12 15.6 °C 7.9 °C 1007.3 hPa NNW 7.6 km/h 7.6 km/h 60 % 0.0 mm open2300-1.11 W/m2
07:12 15.6 °C 7.9 °C 1007.3 hPa NW 7.6 km/h 7.6 km/h 60 % 0.0 mm open2300-1.11 W/m2
08:12 15.6 °C 7.9 °C 1008.0 hPa Calm     60 % 0.0 mm open2300-1.11 W/m2
09:12 16.1 °C 8.8 °C 1008.0 hPa NW 3.4 km/h 3.4 km/h 62 % 0.0 mm open2300-1.11 W/m2
10:12 17.4 °C 9.6 °C 1008.4 hPa Calm   5.1 km/h 60 % 0.0 mm open2300-1.11 W/m2
11:11 20.3 °C 10.7 °C 1008.0 hPa SE 4.7 km/h 7.6 km/h 54 % 0.0 mm open2300-1.11 W/m2
12:11 21.6 °C 11.3 °C 1007.3 hPa SE 6.9 km/h 6.9 km/h 52 % 0.0 mm open2300-1.11 W/m2
13:11 21.6 °C 11.8 °C 1006.7 hPa SSE 12.2 km/h 12.2 km/h 54 % 0.0 mm open2300-1.11 W/m2
14:12 21.5 °C 10.9 °C 1006.0 hPa West 14.5 km/h 25.4 km/h 51 % 0.0 mm open2300-1.11 W/m2
15:11 22.1 °C 11.8 °C 1005.3 hPa NNW 5.6 km/h 23 km/h 52 % 0.0 mm open2300-1.11 W/m2
16:11 21.4 °C 12.2 °C 1005.3 hPa WNW 31.9 km/h 48.6 km/h 56 % 0.0 mm open2300-1.11 W/m2
17:11 19.2 °C 10.7 °C 1004.6 hPa WNW 9.8 km/h 9.8 km/h 58 % 0.0 mm open2300-1.11 W/m2
18:11 19.3 °C 10.0 °C 1005.3 hPa NW 16.3 km/h 38.8 km/h 55 % 0.0 mm open2300-1.11 W/m2
19:10 18.6 °C 9.6 °C 1005.3 hPa West 12.7 km/h 23.8 km/h 56 % 0.0 mm open2300-1.11 W/m2
20:10 18.5 °C 8.7 °C 1005.6 hPa WNW 9.3 km/h 11.6 km/h 53 % 0.0 mm open2300-1.11 W/m2
21:10 17.7 °C 8.5 °C 1006.3 hPa Calm   3.4 km/h 55 % 0.0 mm open2300-1.11 W/m2
22:10 16.9 °C 8.6 °C 1006.7 hPa WNW 16.9 km/h 20.9 km/h 58 % 0.0 mm open2300-1.11 W/m2
23:10 15.9 °C 8.4 °C 1006.7 hPa Calm     61 % 0.0 mm open2300-1.11 W/m2
Observations météo à CASSIS
WU-History script by Weather Underground - 1 mb